createdAt,value
2019-01-08T00:01:05.359Z,11.88
2019-01-08T00:03:33.876Z,12.70
2019-01-08T00:06:02.402Z,11.18
2019-01-08T00:08:30.831Z,12.00
2019-01-08T00:10:59.290Z,11.08
2019-01-08T00:13:27.715Z,11.22
2019-01-08T00:15:56.117Z,12.03
2019-01-08T00:18:24.573Z,11.95
2019-01-08T00:20:53.419Z,8.75
2019-01-08T00:23:21.915Z,10.03
2019-01-08T00:25:50.338Z,9.95
2019-01-08T00:28:18.820Z,10.80
2019-01-08T00:30:47.259Z,11.57
2019-01-08T00:33:15.740Z,11.68
2019-01-08T00:35:44.263Z,7.75
2019-01-08T00:38:12.803Z,9.83
2019-01-08T00:40:41.284Z,11.22
2019-01-08T00:43:09.767Z,9.45
2019-01-08T00:45:38.246Z,10.50
2019-01-08T00:48:06.731Z,9.15
2019-01-08T00:50:35.212Z,8.55
2019-01-08T00:53:03.651Z,9.88
2019-01-08T00:55:32.121Z,7.65
2019-01-08T00:58:00.555Z,10.38
2019-01-08T01:00:29.033Z,10.30
2019-01-08T01:02:57.451Z,9.43
2019-01-08T01:05:25.899Z,8.38
2019-01-08T01:07:54.344Z,8.90
2019-01-08T01:10:22.794Z,8.90
2019-01-08T01:12:51.221Z,8.25
2019-01-08T01:15:19.687Z,9.05
2019-01-08T01:17:48.096Z,7.95
2019-01-08T01:20:16.550Z,8.28
2019-01-08T01:22:44.998Z,7.33
2019-01-08T01:25:13.515Z,9.25
2019-01-08T01:27:41.962Z,9.88
2019-01-08T01:30:10.491Z,8.48
2019-01-08T01:32:38.925Z,7.42
2019-01-08T01:35:07.366Z,7.62
2019-01-08T01:37:35.769Z,7.08
2019-01-08T01:40:09.187Z,7.00
2019-01-08T01:42:39.751Z,6.22
2019-01-08T01:45:08.178Z,6.80
2019-01-08T01:47:36.610Z,6.60
2019-01-08T01:50:06.350Z,6.87
2019-01-08T01:52:34.931Z,5.97
2019-01-08T01:55:06.371Z,5.85
2019-01-08T01:57:34.805Z,5.78
2019-01-08T02:00:03.903Z,6.28
2019-01-08T02:02:32.378Z,5.97
2019-01-08T04:57:49.257Z,1.52
2019-01-08T05:00:17.724Z,1.20
2019-01-08T05:02:46.262Z,1.47
2019-01-08T05:05:14.752Z,1.67
2019-01-08T05:07:43.169Z,1.00
2019-01-08T05:10:11.662Z,1.80
2019-01-08T05:12:40.228Z,1.30
2019-01-08T05:15:08.778Z,1.52
2019-01-08T05:17:37.272Z,1.20
2019-01-08T05:20:07.627Z,1.50
2019-01-08T05:22:36.123Z,2.22
2019-01-08T05:25:05.072Z,2.05
2019-01-08T05:27:33.495Z,1.62
2019-01-08T05:30:07.938Z,1.37
2019-01-08T05:32:32.167Z,2.12
2019-01-08T05:35:00.751Z,2.10
2019-01-08T05:37:29.219Z,2.30
2019-01-08T05:39:57.702Z,2.50
2019-01-08T05:42:26.120Z,1.87
2019-01-08T05:44:54.631Z,2.10
2019-01-08T05:47:26.628Z,2.25
2019-01-08T05:49:55.104Z,1.95
2019-01-08T05:52:23.572Z,2.00
2019-01-08T05:54:51.998Z,2.85
2019-01-08T05:57:20.477Z,2.98
2019-01-08T05:59:48.963Z,2.15
2019-01-08T06:02:20.973Z,2.35
2019-01-08T06:04:49.395Z,2.17
2019-01-08T06:07:17.940Z,2.58
2019-01-08T06:09:46.364Z,2.47
2019-01-08T06:12:14.815Z,2.22
2019-01-08T06:14:43.295Z,1.70
2019-01-08T06:17:14.581Z,1.75
2019-01-08T06:19:43.045Z,3.12
2019-01-08T06:22:11.583Z,2.45
2019-01-08T06:24:40.009Z,1.57
2019-01-08T06:27:08.445Z,1.70
2019-01-08T06:29:36.883Z,1.85
2019-01-08T06:32:05.296Z,2.70
2019-01-08T06:34:33.756Z,1.45
2019-01-08T06:37:02.191Z,1.45
2019-01-08T06:39:30.607Z,2.25
2019-01-08T06:41:59.064Z,1.77
2019-01-08T06:44:27.499Z,1.90
2019-01-08T06:46:55.925Z,1.90
2019-01-08T06:49:24.336Z,2.02
2019-01-08T06:51:52.787Z,1.80
2019-01-08T06:54:21.216Z,2.15
2019-01-08T06:56:49.954Z,2.45
2019-01-08T06:59:18.404Z,1.55
2019-01-08T07:01:46.881Z,2.12
2019-01-08T07:04:15.335Z,2.33
2019-01-08T07:06:43.755Z,2.65
2019-01-08T07:09:12.225Z,3.33
2019-01-08T07:11:40.643Z,2.83
2019-01-08T07:14:09.094Z,3.25
2019-01-08T07:16:37.567Z,2.90
2019-01-08T07:19:07.661Z,2.25
2019-01-08T07:21:36.104Z,2.10
2019-01-08T07:24:04.735Z,2.45
2019-01-08T07:26:33.590Z,2.30
2019-01-08T07:29:02.152Z,2.17
2019-01-08T07:31:30.576Z,2.45
2019-01-08T07:33:59.005Z,2.42
2019-01-08T07:36:27.434Z,1.92
2019-01-08T07:38:55.846Z,1.92
2019-01-08T07:41:24.315Z,2.65
2019-01-08T07:43:52.799Z,2.02
2019-01-08T07:46:21.257Z,1.92
2019-01-08T07:48:49.682Z,1.90
2019-01-08T07:51:18.127Z,2.00
2019-01-08T07:53:46.599Z,1.82
2019-01-08T07:56:15.003Z,1.85
2019-01-08T07:58:43.459Z,1.62
2019-01-08T08:01:11.912Z,2.22
2019-01-08T08:03:40.347Z,1.98
2019-01-08T08:06:08.947Z,2.90
2019-01-08T08:08:40.300Z,1.92
2019-01-08T08:11:11.523Z,2.37
2019-01-08T08:13:40.027Z,2.02
2019-01-08T08:16:08.528Z,2.12
2019-01-08T08:18:36.972Z,1.75
2019-01-08T08:21:05.501Z,1.92
2019-01-08T08:23:34.064Z,1.98
2019-01-08T08:26:06.881Z,2.08
2019-01-08T08:28:35.124Z,2.55
2019-01-08T08:31:03.564Z,2.60
2019-01-08T08:33:36.419Z,2.20
2019-01-08T08:36:04.878Z,2.30
2019-01-08T08:38:33.336Z,2.00
2019-01-08T08:41:01.776Z,2.00
2019-01-08T08:43:30.210Z,2.08
2019-01-08T08:45:58.738Z,2.20
2019-01-08T08:48:29.906Z,2.40
2019-01-08T08:50:58.391Z,2.35
2019-01-08T08:53:29.001Z,2.90
2019-01-08T08:55:57.471Z,1.80
2019-01-08T08:58:25.971Z,2.60
2019-01-08T09:00:54.419Z,3.45
2019-01-08T09:03:24.299Z,2.58
2019-01-08T09:05:52.862Z,2.62
2019-01-08T09:08:21.409Z,2.58
2019-01-08T09:10:49.827Z,3.27
2019-01-08T09:13:18.309Z,2.80
2019-01-08T09:15:46.782Z,3.00
2019-01-08T09:18:15.235Z,2.75
2019-01-08T09:20:46.975Z,2.98
2019-01-08T09:23:15.403Z,2.87
2019-01-08T09:25:43.926Z,2.77
2019-01-08T09:28:12.345Z,2.62
2019-01-08T09:30:40.771Z,2.58
2019-01-08T09:33:09.203Z,2.65
2019-01-08T09:35:37.702Z,3.62
2019-01-08T09:38:07.576Z,2.30
2019-01-08T09:40:36.028Z,1.90
2019-01-08T09:43:04.488Z,1.60
2019-01-08T09:45:32.972Z,1.35
2019-01-08T09:48:01.416Z,1.80
2019-01-08T09:50:29.860Z,1.30
2019-01-08T09:52:58.312Z,2.10
2019-01-08T09:55:26.798Z,2.27
2019-01-08T09:57:55.227Z,2.00
2019-01-08T10:00:23.691Z,2.40
2019-01-08T10:02:52.173Z,2.40
2019-01-08T10:05:20.793Z,1.90
2019-01-08T10:07:49.188Z,3.22
2019-01-08T10:10:17.734Z,2.33
2019-01-08T10:12:46.191Z,2.15
2019-01-08T10:15:14.677Z,2.42
2019-01-08T10:17:43.135Z,1.92
2019-01-08T10:20:11.569Z,3.52
2019-01-08T10:22:40.119Z,2.55
2019-01-08T10:25:09.424Z,2.80
2019-01-08T10:27:37.924Z,2.80
2019-01-08T10:30:09.452Z,2.27
2019-01-08T10:32:37.866Z,2.60
2019-01-08T10:35:07.472Z,2.00
2019-01-08T10:37:35.925Z,2.40
2019-01-08T10:40:07.188Z,2.62
2019-01-08T10:42:35.748Z,2.40
2019-01-08T10:45:05.319Z,2.05
2019-01-08T10:47:33.843Z,2.60
2019-01-08T10:50:02.434Z,2.10
2019-01-08T10:52:34.807Z,2.35
2019-01-08T10:55:03.312Z,3.20
2019-01-08T10:57:31.824Z,2.60
2019-01-08T11:00:00.343Z,2.67
2019-01-08T11:02:28.768Z,2.62
2019-01-08T11:04:57.248Z,1.85
2019-01-08T11:07:25.703Z,2.08
2019-01-08T11:09:54.166Z,2.30
2019-01-08T11:12:22.603Z,1.70
2019-01-08T11:14:51.068Z,2.70
2019-01-08T11:17:19.494Z,2.17
2019-01-08T11:19:47.934Z,2.35
2019-01-08T11:22:19.351Z,2.83
2019-01-08T11:24:47.856Z,2.42
2019-01-08T11:27:18.087Z,2.10
2019-01-08T11:29:46.565Z,1.40
2019-01-08T11:32:15.184Z,2.37
2019-01-08T11:34:43.631Z,2.10
2019-01-08T11:37:12.143Z,2.10
2019-01-08T11:39:40.590Z,4.60
2019-01-08T11:42:09.516Z,1.57
2019-01-08T11:44:37.997Z,2.87
2019-01-08T11:47:06.443Z,2.17
2019-01-08T11:49:35.423Z,1.67
2019-01-08T11:52:03.970Z,2.17
2019-01-08T11:54:41.151Z,2.50
2019-01-08T11:57:06.999Z,2.25
2019-01-08T11:59:35.420Z,2.98
2019-01-08T12:02:03.839Z,2.22
2019-01-08T12:04:32.416Z,2.08
2019-01-08T12:07:00.877Z,2.77
2019-01-08T12:09:29.334Z,1.92
2019-01-08T12:11:57.851Z,2.90
2019-01-08T12:14:26.309Z,2.33
2019-01-08T12:16:54.764Z,2.60
2019-01-08T12:19:23.202Z,2.33
2019-01-08T12:21:51.662Z,3.27
2019-01-08T12:24:23.239Z,1.82
2019-01-08T12:26:51.763Z,2.58
2019-01-08T12:29:20.158Z,2.55
2019-01-08T12:31:48.633Z,2.33
2019-01-08T12:34:17.059Z,1.80
2019-01-08T12:36:45.473Z,2.87
2019-01-08T12:39:17.511Z,1.62
2019-01-08T12:41:45.957Z,2.12
2019-01-08T12:44:14.428Z,2.00
2019-01-08T12:46:42.851Z,1.40
2019-01-08T12:49:11.380Z,1.90
2019-01-08T12:51:39.880Z,2.20
2019-01-08T12:54:12.794Z,1.45
2019-01-08T12:56:41.369Z,2.02
2019-01-08T12:59:10.037Z,2.00
2019-01-08T13:01:38.553Z,2.00
2019-01-08T13:04:07.000Z,1.77
2019-01-08T13:06:35.463Z,1.95
2019-01-08T13:09:10.743Z,1.60
2019-01-08T13:11:39.138Z,2.40
2019-01-08T13:14:07.613Z,1.67
2019-01-08T13:16:36.146Z,2.08
2019-01-08T13:19:04.572Z,1.70
2019-01-08T13:21:33.029Z,1.87
2019-01-08T13:24:01.509Z,1.05
2019-01-08T13:26:29.991Z,1.45
2019-01-08T13:28:58.443Z,1.25
2019-01-08T13:31:26.955Z,2.27
2019-01-08T13:33:55.434Z,1.60
2019-01-08T13:36:23.918Z,1.42
2019-01-08T13:38:52.391Z,1.12
2019-01-08T13:41:20.872Z,1.00
2019-01-08T13:43:49.280Z,1.25
2019-01-08T13:46:17.876Z,1.50
2019-01-08T13:48:46.596Z,1.40
2019-01-08T13:51:15.034Z,1.65
2019-01-08T13:53:43.510Z,2.05
2019-01-08T13:56:15.451Z,1.40
2019-01-08T13:58:44.015Z,1.40
2019-01-08T14:01:12.564Z,1.70
2019-01-08T14:03:41.046Z,1.10
2019-01-08T14:06:09.506Z,1.47
2019-01-08T14:08:38.092Z,1.98
2019-01-08T14:11:06.680Z,1.50
2019-01-08T14:13:35.270Z,1.27
2019-01-08T14:16:04.687Z,1.17
2019-01-08T14:18:33.220Z,1.27
2019-01-08T14:21:01.735Z,1.25
2019-01-08T14:23:30.325Z,1.30
2019-01-08T14:25:58.868Z,1.80
2019-01-08T14:28:27.324Z,1.35
2019-01-08T14:30:55.738Z,1.50
2019-01-08T14:33:24.224Z,1.52
2019-01-08T14:35:52.682Z,1.52
2019-01-08T14:38:21.155Z,1.05
2019-01-08T14:40:53.863Z,1.85
2019-01-08T14:43:22.334Z,1.40
2019-01-08T14:45:50.802Z,1.55
2019-01-08T14:48:19.275Z,1.98
2019-01-08T14:50:47.711Z,2.17
2019-01-08T14:53:16.260Z,2.25
2019-01-08T14:55:44.666Z,1.55
2019-01-08T14:58:13.147Z,1.65
2019-01-08T15:00:41.683Z,3.20
2019-01-08T15:03:10.095Z,1.30
2019-01-08T15:05:38.579Z,1.40
2019-01-08T15:08:07.080Z,1.90
2019-01-08T15:10:35.623Z,1.30
2019-01-08T15:13:04.039Z,1.80
2019-01-08T15:15:32.560Z,1.55
2019-01-08T15:18:01.044Z,1.20
2019-01-08T15:20:29.536Z,1.35
2019-01-08T15:22:58.027Z,1.42
2019-01-08T15:25:26.502Z,1.80
2019-01-08T15:27:54.980Z,1.40
2019-01-08T15:30:23.409Z,1.20
2019-01-08T15:32:58.207Z,1.10
2019-01-08T15:35:22.051Z,1.60
2019-01-08T15:37:50.507Z,1.10
2019-01-08T15:40:19.056Z,1.82
2019-01-08T15:42:47.519Z,1.30
2019-01-08T15:45:15.930Z,1.10
2019-01-08T15:47:44.399Z,1.70
2019-01-08T15:50:12.821Z,1.40
2019-01-08T15:52:41.231Z,1.42
2019-01-08T15:55:09.710Z,1.15
2019-01-08T15:57:38.193Z,1.00
2019-01-08T16:00:09.615Z,1.50
2019-01-08T16:02:38.019Z,1.60
2019-01-08T16:05:07.733Z,1.35
2019-01-08T16:07:40.720Z,1.65
2019-01-08T16:10:09.205Z,2.40
2019-01-08T16:12:37.864Z,1.62
2019-01-08T16:15:06.880Z,1.15
2019-01-08T16:17:35.338Z,1.87
2019-01-08T16:20:05.155Z,1.42
2019-01-08T16:22:33.689Z,1.30
2019-01-08T16:25:02.241Z,1.50
2019-01-08T16:27:30.655Z,1.92
2019-01-08T16:29:59.116Z,1.95
2019-01-08T16:32:27.557Z,1.62
2019-01-08T16:34:55.994Z,1.60
2019-01-08T16:37:24.418Z,1.15
2019-01-08T16:39:52.923Z,1.85
2019-01-08T16:42:22.605Z,2.42
2019-01-08T16:44:51.551Z,2.30
2019-01-08T16:47:20.015Z,2.30
2019-01-08T16:49:48.505Z,2.50
2019-01-08T16:52:16.927Z,3.92
2019-01-08T16:54:49.965Z,3.60
2019-01-08T16:57:18.460Z,2.37
2019-01-08T16:59:46.945Z,3.27
2019-01-08T17:02:17.049Z,1.90
2019-01-08T17:04:45.488Z,2.50
2019-01-08T17:07:13.915Z,2.98
2019-01-08T17:09:42.421Z,1.55
2019-01-08T17:12:10.858Z,2.50
2019-01-08T17:14:39.373Z,2.40
2019-01-08T17:17:07.940Z,2.05
2019-01-08T17:19:36.418Z,3.42
2019-01-08T17:22:04.893Z,2.80
2019-01-08T17:24:33.303Z,1.85
2019-01-08T17:27:01.723Z,1.77
2019-01-08T17:29:30.260Z,3.35
2019-01-08T17:31:58.686Z,2.35
2019-01-08T17:34:29.399Z,4.35
2019-01-08T17:36:59.387Z,3.22
2019-01-08T17:39:27.853Z,2.08
2019-01-08T17:41:56.299Z,2.75
2019-01-08T17:44:27.854Z,2.08
2019-01-08T17:46:56.436Z,2.00
2019-01-08T17:49:24.955Z,2.00
2019-01-08T17:51:53.449Z,1.67
2019-01-08T17:54:21.905Z,1.80
2019-01-08T17:56:50.498Z,1.75
2019-01-08T17:59:18.975Z,2.00
2019-01-08T18:01:50.927Z,1.70
2019-01-08T18:04:19.862Z,1.50
2019-01-08T18:06:48.435Z,1.67
2019-01-08T18:09:16.924Z,1.70
2019-01-08T18:11:45.444Z,2.00
2019-01-08T18:14:13.879Z,2.10
2019-01-08T18:16:42.402Z,2.00
2019-01-08T18:19:10.823Z,1.70
2019-01-08T18:21:39.341Z,2.30
2019-01-08T18:24:07.820Z,2.40
2019-01-08T18:26:36.354Z,2.95
2019-01-08T18:29:04.861Z,2.45
2019-01-08T18:31:33.273Z,2.30
2019-01-08T18:34:01.691Z,2.40
2019-01-08T18:36:30.135Z,2.80
2019-01-08T18:39:00.565Z,2.98
2019-01-08T18:41:28.727Z,2.30
2019-01-08T18:43:57.136Z,2.42
2019-01-08T18:46:25.610Z,3.00
2019-01-08T18:48:54.108Z,2.70
2019-01-08T18:51:22.747Z,2.15
2019-01-08T18:53:51.221Z,2.95
2019-01-08T18:56:19.663Z,2.52
2019-01-08T18:58:48.181Z,3.10
2019-01-08T19:01:16.608Z,2.37
2019-01-08T19:03:45.103Z,2.50
2019-01-08T19:06:13.550Z,3.05
2019-01-08T19:09:01.764Z,2.50
2019-01-08T19:11:30.362Z,2.50
2019-01-08T19:13:59.004Z,2.90
2019-01-08T19:16:27.439Z,2.62
2019-01-08T19:18:55.897Z,2.58
2019-01-08T19:21:24.427Z,2.45
2019-01-08T19:23:52.855Z,3.20
2019-01-08T19:26:21.341Z,2.50
2019-01-08T19:28:52.188Z,2.33
2019-01-08T19:31:20.668Z,2.05
2019-01-08T19:33:49.194Z,2.67
2019-01-08T19:36:20.735Z,2.80
2019-01-08T19:38:50.912Z,2.17
2019-01-08T19:41:19.616Z,2.55
2019-01-08T19:43:49.748Z,1.87
2019-01-08T19:46:23.036Z,1.90
2019-01-08T19:48:51.661Z,1.55
2019-01-08T19:51:21.834Z,1.90
2019-01-08T19:53:50.522Z,1.87
2019-01-08T19:56:18.980Z,2.35
2019-01-08T19:58:49.083Z,2.00
2019-01-08T20:01:28.298Z,1.85
2019-01-08T20:03:56.839Z,3.08
2019-01-08T20:06:27.162Z,2.15
2019-01-08T20:08:57.280Z,2.12
2019-01-08T20:11:25.910Z,1.80
2019-01-08T20:13:56.173Z,1.70
2019-01-08T20:16:27.959Z,2.25
2019-01-08T20:18:56.536Z,2.10
2019-01-08T20:21:25.112Z,2.25
2019-01-08T20:23:53.624Z,2.12
2019-01-08T20:26:22.066Z,2.17
2019-01-08T20:28:50.723Z,1.80
2019-01-08T20:31:23.428Z,1.67
2019-01-08T20:33:57.487Z,2.00
2019-01-08T20:36:28.688Z,2.00
2019-01-08T20:38:57.359Z,2.40
2019-01-08T20:41:35.997Z,2.08
2019-01-08T20:44:06.477Z,1.40
2019-01-08T20:46:41.108Z,1.60
2019-01-08T20:49:11.260Z,1.65
2019-01-08T20:51:41.580Z,2.12
2019-01-08T20:54:10.118Z,2.95
2019-01-08T20:56:40.111Z,2.05
2019-01-08T20:59:08.691Z,1.90
2019-01-08T21:01:37.160Z,3.58
2019-01-08T21:04:05.616Z,2.10
2019-01-08T21:06:34.092Z,2.05
2019-01-08T21:09:02.547Z,2.15
2019-01-08T21:11:30.967Z,3.62
2019-01-08T21:13:59.421Z,1.92
2019-01-08T21:16:27.872Z,2.08
2019-01-08T21:18:56.298Z,1.42
2019-01-08T21:21:24.779Z,1.92
2019-01-08T21:23:53.289Z,2.98
2019-01-08T21:26:21.900Z,1.60
2019-01-08T21:28:50.441Z,2.10
2019-01-08T21:31:18.872Z,3.08
2019-01-08T21:33:47.435Z,3.20
2019-01-08T21:36:15.865Z,2.00
2019-01-08T21:38:44.280Z,1.62
2019-01-08T21:41:13.739Z,2.33
2019-01-08T21:43:42.559Z,3.62
2019-01-08T21:46:11.019Z,2.70
2019-01-08T21:48:39.594Z,4.25
2019-01-08T21:51:08.104Z,2.83
2019-01-08T21:53:36.591Z,2.70
2019-01-08T21:56:05.709Z,3.35
2019-01-08T21:58:34.763Z,2.00
2019-01-08T22:01:03.205Z,2.90
2019-01-08T22:03:31.670Z,2.40
2019-01-08T22:06:00.083Z,2.42
2019-01-08T22:08:28.521Z,2.02
2019-01-08T22:10:57.027Z,2.00
2019-01-08T22:13:25.455Z,2.42
2019-01-08T22:15:53.879Z,3.15
2019-01-08T22:18:25.934Z,3.42
2019-01-08T22:20:54.383Z,3.25
2019-01-08T22:23:22.805Z,2.50
2019-01-08T22:25:51.374Z,3.10
2019-01-08T22:28:19.792Z,2.92
2019-01-08T22:30:48.290Z,3.90
2019-01-08T22:33:21.295Z,5.20
2019-01-08T22:35:49.795Z,3.40
2019-01-08T22:38:18.326Z,3.15
2019-01-08T22:40:46.849Z,2.80
2019-01-08T22:43:15.279Z,3.10
2019-01-08T22:45:43.846Z,2.40
2019-01-08T22:48:12.272Z,2.10
2019-01-08T22:50:40.733Z,3.17
2019-01-08T22:53:09.213Z,3.77
2019-01-08T22:55:37.642Z,2.52
2019-01-08T22:58:06.255Z,2.95
2019-01-08T23:00:36.494Z,2.77
2019-01-08T23:03:05.195Z,2.67
2019-01-08T23:05:33.691Z,3.30
2019-01-08T23:08:02.227Z,3.00
2019-01-08T23:10:31.743Z,2.47
2019-01-08T23:13:01.144Z,1.87
2019-01-08T23:15:29.658Z,3.05
2019-01-08T23:17:58.107Z,2.80
2019-01-08T23:20:26.519Z,2.25
2019-01-08T23:22:54.966Z,2.35
2019-01-08T23:25:23.376Z,2.47
2019-01-08T23:27:51.956Z,2.22
2019-01-08T23:30:20.579Z,2.83
2019-01-08T23:32:49.050Z,2.60
2019-01-08T23:35:19.596Z,1.60
2019-01-08T23:37:47.626Z,2.72
2019-01-08T23:40:16.104Z,2.52
2019-01-08T23:42:44.556Z,3.27
2019-01-08T23:45:13.428Z,2.12
2019-01-08T23:47:41.887Z,1.82
2019-01-08T23:50:10.427Z,2.22
2019-01-08T23:52:53.461Z,2.95
2019-01-08T23:55:23.503Z,2.10
2019-01-08T23:57:52.599Z,2.65
